sensor_id;sensor_type;location;lat;lon;timestamp;pressure;altitude;pressure_sealevel;temperature;humidity
18137;BME280;9194;42.632;23.298;2022-11-03T00:01:13;93097.94;;;16.79;42.33
18137;BME280;9194;42.632;23.298;2022-11-03T00:06:14;93106.13;;;16.61;42.62
18137;BME280;9194;42.632;23.298;2022-11-03T00:11:15;93096.81;;;16.70;42.93
18137;BME280;9194;42.632;23.298;2022-11-03T00:16:18;93105.25;;;16.77;43.04
18137;BME280;9194;42.632;23.298;2022-11-03T00:21:20;93118.06;;;16.47;44.44
18137;BME280;9194;42.632;23.298;2022-11-03T00:26:23;93120.31;;;16.00;45.74
18137;BME280;9194;42.632;23.298;2022-11-03T00:31:29;93119.19;;;15.46;47.60
18137;BME280;9194;42.632;23.298;2022-11-03T00:36:33;93112.72;;;15.03;48.65
18137;BME280;9194;42.632;23.298;2022-11-03T00:41:35;93110.22;;;14.97;49.82
18137;BME280;9194;42.632;23.298;2022-11-03T00:46:37;93119.78;;;15.03;49.49
18137;BME280;9194;42.632;23.298;2022-11-03T00:51:38;93112.78;;;15.08;49.11
18137;BME280;9194;42.632;23.298;2022-11-03T00:56:40;93119.03;;;15.19;48.95
18137;BME280;9194;42.632;23.298;2022-11-03T01:01:43;93118.03;;;15.08;49.01
18137;BME280;9194;42.632;23.298;2022-11-03T01:06:47;93114.47;;;15.14;48.91
18137;BME280;9194;42.632;23.298;2022-11-03T01:12:02;93117.00;;;15.09;49.54
18137;BME280;9194;42.632;23.298;2022-11-03T01:17:12;93104.09;;;15.19;50.59
18137;BME280;9194;42.632;23.298;2022-11-03T01:22:14;93116.16;;;15.20;50.59
18137;BME280;9194;42.632;23.298;2022-11-03T01:27:19;93117.59;;;15.11;51.13
18137;BME280;9194;42.632;23.298;2022-11-03T01:32:20;93122.66;;;15.01;51.70
18137;BME280;9194;42.632;23.298;2022-11-03T01:37:23;93113.13;;;14.95;52.63
18137;BME280;9194;42.632;23.298;2022-11-03T01:42:24;93112.78;;;14.92;53.20
18137;BME280;9194;42.632;23.298;2022-11-03T01:47:29;93113.56;;;14.92;53.33
18137;BME280;9194;42.632;23.298;2022-11-03T01:57:40;93116.59;;;14.84;54.42
18137;BME280;9194;42.632;23.298;2022-11-03T02:02:43;93123.31;;;14.80;55.04
18137;BME280;9194;42.632;23.298;2022-11-03T02:12:47;93130.06;;;14.76;55.61
18137;BME280;9194;42.632;23.298;2022-11-03T02:17:49;93127.94;;;14.61;56.64
18137;BME280;9194;42.632;23.298;2022-11-03T02:28:03;93128.44;;;14.47;58.26
18137;BME280;9194;42.632;23.298;2022-11-03T02:38:25;93121.59;;;14.34;59.37
18137;BME280;9194;42.632;23.298;2022-11-03T02:43:28;93132.06;;;14.34;59.89
18137;BME280;9194;42.632;23.298;2022-11-03T02:48:31;93127.44;;;14.24;60.69
18137;BME280;9194;42.632;23.298;2022-11-03T02:53:36;93121.94;;;14.49;60.22
18137;BME280;9194;42.632;23.298;2022-11-03T02:58:57;93121.06;;;14.72;59.74
18137;BME280;9194;42.632;23.298;2022-11-03T03:04:07;93122.72;;;14.90;58.94
18137;BME280;9194;42.632;23.298;2022-11-03T03:09:15;93127.28;;;14.83;59.17
18137;BME280;9194;42.632;23.298;2022-11-03T03:14:26;93121.38;;;14.75;60.59
18137;BME280;9194;42.632;23.298;2022-11-03T03:25:04;93117.63;;;14.31;61.87
18137;BME280;9194;42.632;23.298;2022-11-03T03:30:07;93113.34;;;14.14;61.75
18137;BME280;9194;42.632;23.298;2022-11-03T03:35:13;93121.75;;;13.92;63.06
18137;BME280;9194;42.632;23.298;2022-11-03T03:40:24;93133.84;;;13.70;64.50
18137;BME280;9194;42.632;23.298;2022-11-03T03:45:29;93129.59;;;13.46;65.47
18137;BME280;9194;42.632;23.298;2022-11-03T03:50:34;93129.13;;;13.26;66.81
18137;BME280;9194;42.632;23.298;2022-11-03T03:55:42;93132.59;;;13.08;67.51
18137;BME280;9194;42.632;23.298;2022-11-03T04:00:45;93124.50;;;12.98;67.57
18137;BME280;9194;42.632;23.298;2022-11-03T04:05:46;93125.97;;;13.05;67.24
18137;BME280;9194;42.632;23.298;2022-11-03T04:10:48;93126.66;;;13.01;67.67
18137;BME280;9194;42.632;23.298;2022-11-03T04:16:08;93139.69;;;12.89;68.62
18137;BME280;9194;42.632;23.298;2022-11-03T04:21:28;93138.03;;;12.76;69.34
18137;BME280;9194;42.632;23.298;2022-11-03T04:26:48;93133.63;;;12.59;69.97
18137;BME280;9194;42.632;23.298;2022-11-03T04:31:49;93142.03;;;12.31;70.95
18137;BME280;9194;42.632;23.298;2022-11-03T04:36:50;93136.25;;;12.11;71.07
18137;BME280;9194;42.632;23.298;2022-11-03T04:41:52;93134.56;;;11.98;72.04
18137;BME280;9194;42.632;23.298;2022-11-03T04:46:53;93139.31;;;11.83;73.15
18137;BME280;9194;42.632;23.298;2022-11-03T04:51:54;93139.44;;;11.70;73.57
18137;BME280;9194;42.632;23.298;2022-11-03T04:56:57;93140.50;;;11.62;74.18
18137;BME280;9194;42.632;23.298;2022-11-03T05:01:58;93137.94;;;11.56;74.52
18137;BME280;9194;42.632;23.298;2022-11-03T05:06:59;93139.34;;;11.58;73.98
18137;BME280;9194;42.632;23.298;2022-11-03T05:12:01;93143.03;;;11.69;74.69
18137;BME280;9194;42.632;23.298;2022-11-03T05:17:10;93156.06;;;11.75;74.59
18137;BME280;9194;42.632;23.298;2022-11-03T05:22:19;93156.22;;;11.80;74.51
18137;BME280;9194;42.632;23.298;2022-11-03T05:27:21;93157.75;;;11.88;74.71
18137;BME280;9194;42.632;23.298;2022-11-03T05:32:29;93159.25;;;11.96;75.00
18137;BME280;9194;42.632;23.298;2022-11-03T05:37:33;93159.94;;;12.09;74.65
18137;BME280;9194;42.632;23.298;2022-11-03T05:42:38;93169.06;;;12.18;74.72
18137;BME280;9194;42.632;23.298;2022-11-03T05:47:41;93176.16;;;12.29;75.19
18137;BME280;9194;42.632;23.298;2022-11-03T05:52:44;93179.38;;;12.50;74.20
18137;BME280;9194;42.632;23.298;2022-11-03T05:57:46;93180.00;;;12.63;73.90
18137;BME280;9194;42.632;23.298;2022-11-03T06:02:48;93184.03;;;12.77;73.89
18137;BME280;9194;42.632;23.298;2022-11-03T06:07:52;93188.34;;;13.02;72.82
18137;BME280;9194;42.632;23.298;2022-11-03T06:18:51;93196.28;;;13.67;72.31
18137;BME280;9194;42.632;23.298;2022-11-03T06:23:52;93186.19;;;14.05;69.93
18137;BME280;9194;42.632;23.298;2022-11-03T06:28:55;93195.63;;;14.41;68.16
18137;BME280;9194;42.632;23.298;2022-11-03T06:33:57;93203.00;;;14.67;67.74
18137;BME280;9194;42.632;23.298;2022-11-03T06:39:15;93208.22;;;14.79;66.44
18137;BME280;9194;42.632;23.298;2022-11-03T06:44:24;93213.66;;;14.89;66.03
18137;BME280;9194;42.632;23.298;2022-11-03T06:54:29;93200.28;;;15.31;65.63
18137;BME280;9194;42.632;23.298;2022-11-03T06:59:30;93209.19;;;15.58;64.31
18137;BME280;9194;42.632;23.298;2022-11-03T07:04:31;93200.38;;;15.81;63.41
18137;BME280;9194;42.632;23.298;2022-11-03T07:09:33;93204.00;;;15.96;62.49
18137;BME280;9194;42.632;23.298;2022-11-03T07:14:34;93204.13;;;16.01;62.37
18137;BME280;9194;42.632;23.298;2022-11-03T07:19:41;93202.03;;;16.03;62.00
18137;BME280;9194;42.632;23.298;2022-11-03T07:24:44;93194.28;;;16.14;61.66
18137;BME280;9194;42.632;23.298;2022-11-03T07:29:48;93194.06;;;16.15;61.49
18137;BME280;9194;42.632;23.298;2022-11-03T07:34:52;93191.59;;;16.09;62.05
18137;BME280;9194;42.632;23.298;2022-11-03T07:39:53;93197.66;;;15.92;62.41
18137;BME280;9194;42.632;23.298;2022-11-03T07:44:55;93200.22;;;15.87;63.38
18137;BME280;9194;42.632;23.298;2022-11-03T07:49:56;93196.56;;;15.88;63.50
18137;BME280;9194;42.632;23.298;2022-11-03T07:54:58;93192.41;;;15.92;63.39
18137;BME280;9194;42.632;23.298;2022-11-03T08:00:06;93197.19;;;15.95;63.12
18137;BME280;9194;42.632;23.298;2022-11-03T08:05:13;93182.13;;;16.08;62.75
18137;BME280;9194;42.632;23.298;2022-11-03T08:10:14;93181.06;;;16.25;62.34
18137;BME280;9194;42.632;23.298;2022-11-03T08:15:16;93169.13;;;16.34;61.29
18137;BME280;9194;42.632;23.298;2022-11-03T08:20:17;93169.38;;;16.55;60.76
18137;BME280;9194;42.632;23.298;2022-11-03T08:25:18;93164.13;;;16.71;60.22
18137;BME280;9194;42.632;23.298;2022-11-03T08:30:20;93169.25;;;16.83;59.83
18137;BME280;9194;42.632;23.298;2022-11-03T08:35:21;93166.13;;;16.86;59.39
18137;BME280;9194;42.632;23.298;2022-11-03T08:40:23;93153.34;;;16.95;59.57
18137;BME280;9194;42.632;23.298;2022-11-03T08:45:24;93162.44;;;16.87;59.44
18137;BME280;9194;42.632;23.298;2022-11-03T08:50:25;93163.84;;;16.95;58.94
18137;BME280;9194;42.632;23.298;2022-11-03T08:55:27;93155.94;;;17.16;59.83
18137;BME280;9194;42.632;23.298;2022-11-03T09:00:28;93156.38;;;17.35;59.69
18137;BME280;9194;42.632;23.298;2022-11-03T09:05:29;93162.56;;;17.24;59.29
18137;BME280;9194;42.632;23.298;2022-11-03T09:10:31;93153.25;;;17.38;59.69
18137;BME280;9194;42.632;23.298;2022-11-03T09:15:33;93145.91;;;17.40;59.30
18137;BME280;9194;42.632;23.298;2022-11-03T09:20:35;93140.72;;;17.50;59.20
18137;BME280;9194;42.632;23.298;2022-11-03T09:25:36;93137.44;;;17.65;58.97
18137;BME280;9194;42.632;23.298;2022-11-03T09:30:38;93131.47;;;17.75;58.70
18137;BME280;9194;42.632;23.298;2022-11-03T09:35:40;93131.97;;;17.72;58.69
18137;BME280;9194;42.632;23.298;2022-11-03T09:40:41;93126.78;;;17.82;58.98
18137;BME280;9194;42.632;23.298;2022-11-03T09:45:43;93112.69;;;18.03;58.46
18137;BME280;9194;42.632;23.298;2022-11-03T09:50:47;93108.09;;;18.30;56.73
18137;BME280;9194;42.632;23.298;2022-11-03T09:55:54;93107.41;;;18.45;56.36
18137;BME280;9194;42.632;23.298;2022-11-03T10:00:56;93094.47;;;18.48;56.25
18137;BME280;9194;42.632;23.298;2022-11-03T10:05:57;93099.59;;;18.65;55.52
18137;BME280;9194;42.632;23.298;2022-11-03T10:10:59;93080.63;;;18.68;54.60
18137;BME280;9194;42.632;23.298;2022-11-03T10:16:03;93090.34;;;18.58;53.68
18137;BME280;9194;42.632;23.298;2022-11-03T10:21:19;93076.66;;;18.66;53.24
18137;BME280;9194;42.632;23.298;2022-11-03T10:26:22;93077.06;;;18.47;52.43
18137;BME280;9194;42.632;23.298;2022-11-03T10:31:31;93057.03;;;18.41;52.79
18137;BME280;9194;42.632;23.298;2022-11-03T10:36:33;93051.00;;;18.51;53.90
18137;BME280;9194;42.632;23.298;2022-11-03T10:41:34;93052.38;;;18.59;54.02
18137;BME280;9194;42.632;23.298;2022-11-03T10:46:37;93040.28;;;18.68;52.77
18137;BME280;9194;42.632;23.298;2022-11-03T10:51:39;93036.34;;;18.85;52.34
18137;BME280;9194;42.632;23.298;2022-11-03T10:56:42;93031.06;;;18.80;51.67
18137;BME280;9194;42.632;23.298;2022-11-03T11:01:44;93021.81;;;18.73;49.91
18137;BME280;9194;42.632;23.298;2022-11-03T11:06:46;93018.09;;;18.64;49.10
18137;BME280;9194;42.632;23.298;2022-11-03T11:12:12;93005.75;;;18.74;48.21
18137;BME280;9194;42.632;23.298;2022-11-03T11:22:37;92999.16;;;18.82;47.31
18137;BME280;9194;42.632;23.298;2022-11-03T11:43:38;92978.59;;;18.89;48.16
18137;BME280;9194;42.632;23.298;2022-11-03T11:48:39;92959.06;;;18.90;48.04
18137;BME280;9194;42.632;23.298;2022-11-03T11:53:41;92958.28;;;19.10;47.02
18137;BME280;9194;42.632;23.298;2022-11-03T11:58:49;92956.69;;;18.99;46.50
18137;BME280;9194;42.632;23.298;2022-11-03T12:03:53;92954.31;;;19.02;46.07
18137;BME280;9194;42.632;23.298;2022-11-03T12:09:06;92945.59;;;18.71;47.24
18137;BME280;9194;42.632;23.298;2022-11-03T12:19:37;92936.63;;;18.67;47.78
18137;BME280;9194;42.632;23.298;2022-11-03T12:24:47;92936.88;;;18.76;46.92
18137;BME280;9194;42.632;23.298;2022-11-03T12:29:50;92931.63;;;18.86;46.81
18137;BME280;9194;42.632;23.298;2022-11-03T12:34:52;92926.09;;;18.82;46.65
18137;BME280;9194;42.632;23.298;2022-11-03T12:39:55;92920.53;;;18.64;48.92
18137;BME280;9194;42.632;23.298;2022-11-03T12:44:56;92910.75;;;18.39;49.69
18137;BME280;9194;42.632;23.298;2022-11-03T12:49:58;92909.88;;;18.18;51.20
18137;BME280;9194;42.632;23.298;2022-11-03T12:54:59;92902.44;;;17.95;52.63
18137;BME280;9194;42.632;23.298;2022-11-03T13:00:00;92904.50;;;17.78;53.50
18137;BME280;9194;42.632;23.298;2022-11-03T13:05:03;92900.38;;;17.45;55.05
18137;BME280;9194;42.632;23.298;2022-11-03T13:10:04;92901.75;;;17.10;56.39
18137;BME280;9194;42.632;23.298;2022-11-03T13:15:07;92890.75;;;16.76;57.24
18137;BME280;9194;42.632;23.298;2022-11-03T13:20:10;92896.00;;;16.50;58.07
18137;BME280;9194;42.632;23.298;2022-11-03T13:25:14;92900.91;;;16.36;59.08
18137;BME280;9194;42.632;23.298;2022-11-03T13:30:16;92893.22;;;16.29;58.74
18137;BME280;9194;42.632;23.298;2022-11-03T13:35:17;92884.97;;;16.21;58.64
18137;BME280;9194;42.632;23.298;2022-11-03T13:40:19;92881.97;;;16.07;59.32
18137;BME280;9194;42.632;23.298;2022-11-03T13:45:20;92880.81;;;15.98;59.59
18137;BME280;9194;42.632;23.298;2022-11-03T13:50:22;92881.09;;;15.75;60.29
18137;BME280;9194;42.632;23.298;2022-11-03T13:55:23;92879.94;;;15.66;60.85
18137;BME280;9194;42.632;23.298;2022-11-03T14:00:25;92881.03;;;15.70;61.47
18137;BME280;9194;42.632;23.298;2022-11-03T14:05:26;92895.13;;;15.64;61.89
18137;BME280;9194;42.632;23.298;2022-11-03T14:10:27;92892.00;;;15.45;62.44
18137;BME280;9194;42.632;23.298;2022-11-03T14:15:29;92894.09;;;15.43;63.05
18137;BME280;9194;42.632;23.298;2022-11-03T14:20:30;92890.34;;;15.39;63.55
18137;BME280;9194;42.632;23.298;2022-11-03T14:25:32;92892.72;;;15.18;64.11
18137;BME280;9194;42.632;23.298;2022-11-03T14:30:33;92892.91;;;14.95;65.05
18137;BME280;9194;42.632;23.298;2022-11-03T14:35:34;92895.22;;;14.92;65.37
18137;BME280;9194;42.632;23.298;2022-11-03T14:40:36;92895.66;;;14.67;66.26
18137;BME280;9194;42.632;23.298;2022-11-03T14:45:56;92888.97;;;14.59;66.73
18137;BME280;9194;42.632;23.298;2022-11-03T14:50:57;92888.47;;;14.46;67.01
18137;BME280;9194;42.632;23.298;2022-11-03T14:55:58;92886.84;;;14.28;67.52
18137;BME280;9194;42.632;23.298;2022-11-03T15:00:59;92883.50;;;14.16;68.57
18137;BME280;9194;42.632;23.298;2022-11-03T15:06:00;92883.19;;;14.12;68.74
18137;BME280;9194;42.632;23.298;2022-11-03T15:11:06;92892.22;;;14.05;69.77
18137;BME280;9194;42.632;23.298;2022-11-03T15:16:08;92895.41;;;13.78;71.69
18137;BME280;9194;42.632;23.298;2022-11-03T15:21:09;92890.53;;;13.70;71.84
18137;BME280;9194;42.632;23.298;2022-11-03T15:26:11;92890.03;;;13.56;72.25
18137;BME280;9194;42.632;23.298;2022-11-03T15:31:13;92889.81;;;13.46;72.46
18137;BME280;9194;42.632;23.298;2022-11-03T15:36:14;92883.25;;;13.44;72.17
18137;BME280;9194;42.632;23.298;2022-11-03T15:41:16;92886.66;;;13.44;71.73
18137;BME280;9194;42.632;23.298;2022-11-03T15:46:17;92884.28;;;13.31;72.30
18137;BME280;9194;42.632;23.298;2022-11-03T15:51:19;92882.59;;;13.25;72.69
18137;BME280;9194;42.632;23.298;2022-11-03T15:56:20;92878.25;;;13.31;71.71
18137;BME280;9194;42.632;23.298;2022-11-03T16:01:21;92877.38;;;13.25;71.23
18137;BME280;9194;42.632;23.298;2022-11-03T16:06:23;92874.53;;;13.27;71.07
18137;BME280;9194;42.632;23.298;2022-11-03T16:11:24;92879.38;;;13.35;70.11
18137;BME280;9194;42.632;23.298;2022-11-03T16:16:26;92878.47;;;13.41;69.32
18137;BME280;9194;42.632;23.298;2022-11-03T16:21:27;92878.56;;;13.46;68.90
18137;BME280;9194;42.632;23.298;2022-11-03T16:26:29;92882.41;;;13.55;68.53
18137;BME280;9194;42.632;23.298;2022-11-03T16:31:31;92877.28;;;13.60;68.38
18137;BME280;9194;42.632;23.298;2022-11-03T16:36:32;92878.06;;;13.61;68.52
18137;BME280;9194;42.632;23.298;2022-11-03T16:41:34;92883.75;;;13.57;68.07
18137;BME280;9194;42.632;23.298;2022-11-03T16:46:38;92887.34;;;13.80;68.01
18137;BME280;9194;42.632;23.298;2022-11-03T16:51:39;92886.75;;;13.78;68.27
18137;BME280;9194;42.632;23.298;2022-11-03T16:56:41;92888.94;;;13.69;67.81
18137;BME280;9194;42.632;23.298;2022-11-03T17:01:42;92888.31;;;13.62;68.82
18137;BME280;9194;42.632;23.298;2022-11-03T17:06:43;92884.19;;;13.66;68.50
18137;BME280;9194;42.632;23.298;2022-11-03T17:11:45;92868.63;;;13.60;69.90
18137;BME280;9194;42.632;23.298;2022-11-03T17:16:46;92869.81;;;13.40;69.59
18137;BME280;9194;42.632;23.298;2022-11-03T17:21:48;92871.47;;;13.18;70.15
18137;BME280;9194;42.632;23.298;2022-11-03T17:26:55;92871.66;;;13.05;70.51
18137;BME280;9194;42.632;23.298;2022-11-03T17:31:58;92877.28;;;12.85;72.31
18137;BME280;9194;42.632;23.298;2022-11-03T17:36:59;92876.81;;;12.76;73.00
18137;BME280;9194;42.632;23.298;2022-11-03T17:47:22;92874.31;;;12.58;74.48
18137;BME280;9194;42.632;23.298;2022-11-03T17:52:26;92867.84;;;12.49;75.12
18137;BME280;9194;42.632;23.298;2022-11-03T17:57:28;92871.16;;;12.45;75.37
18137;BME280;9194;42.632;23.298;2022-11-03T18:02:31;92855.13;;;12.41;75.76
18137;BME280;9194;42.632;23.298;2022-11-03T18:07:34;92862.63;;;12.38;75.60
18137;BME280;9194;42.632;23.298;2022-11-03T18:12:39;92859.31;;;12.30;76.44
18137;BME280;9194;42.632;23.298;2022-11-03T18:18:00;92866.34;;;12.30;75.89
18137;BME280;9194;42.632;23.298;2022-11-03T18:23:14;92861.38;;;12.28;75.44
18137;BME280;9194;42.632;23.298;2022-11-03T18:28:16;92863.50;;;12.31;76.42
18137;BME280;9194;42.632;23.298;2022-11-03T18:33:26;92859.91;;;12.32;76.32
18137;BME280;9194;42.632;23.298;2022-11-03T18:38:29;92847.53;;;12.28;76.80
18137;BME280;9194;42.632;23.298;2022-11-03T18:43:30;92847.25;;;12.18;77.60
18137;BME280;9194;42.632;23.298;2022-11-03T18:48:32;92858.25;;;12.08;79.42
18137;BME280;9194;42.632;23.298;2022-11-03T18:53:33;92852.47;;;12.06;77.93
18137;BME280;9194;42.632;23.298;2022-11-03T18:58:34;92857.81;;;12.11;77.09
18137;BME280;9194;42.632;23.298;2022-11-03T19:03:36;92858.75;;;12.17;76.45
18137;BME280;9194;42.632;23.298;2022-11-03T19:08:38;92839.91;;;12.26;76.27
18137;BME280;9194;42.632;23.298;2022-11-03T19:13:45;92844.91;;;12.40;76.58
18137;BME280;9194;42.632;23.298;2022-11-03T19:18:48;92815.84;;;12.36;77.61
18137;BME280;9194;42.632;23.298;2022-11-03T19:23:50;92813.91;;;12.31;75.98
18137;BME280;9194;42.632;23.298;2022-11-03T19:28:57;92803.03;;;12.34;75.68
18137;BME280;9194;42.632;23.298;2022-11-03T19:34:01;92800.97;;;12.25;76.23
18137;BME280;9194;42.632;23.298;2022-11-03T19:39:02;92818.00;;;12.04;78.71
18137;BME280;9194;42.632;23.298;2022-11-03T19:44:08;92836.59;;;12.08;75.59
18137;BME280;9194;42.632;23.298;2022-11-03T19:49:13;92826.41;;;12.53;73.33
18137;BME280;9194;42.632;23.298;2022-11-03T19:54:17;92832.19;;;12.43;74.47
18137;BME280;9194;42.632;23.298;2022-11-03T19:59:19;92836.19;;;12.34;75.32
18137;BME280;9194;42.632;23.298;2022-11-03T20:04:21;92830.81;;;12.29;75.11
18137;BME280;9194;42.632;23.298;2022-11-03T20:09:25;92829.25;;;12.16;76.46
18137;BME280;9194;42.632;23.298;2022-11-03T20:14:27;92831.84;;;12.05;78.11
18137;BME280;9194;42.632;23.298;2022-11-03T20:19:28;92827.59;;;11.92;78.91
18137;BME280;9194;42.632;23.298;2022-11-03T20:24:30;92829.97;;;11.82;80.42
18137;BME280;9194;42.632;23.298;2022-11-03T20:29:32;92833.84;;;11.61;81.26
18137;BME280;9194;42.632;23.298;2022-11-03T20:34:33;92830.84;;;11.46;82.02
18137;BME280;9194;42.632;23.298;2022-11-03T20:39:34;92832.94;;;11.37;84.18
18137;BME280;9194;42.632;23.298;2022-11-03T20:44:35;92834.94;;;11.24;86.50
18137;BME280;9194;42.632;23.298;2022-11-03T20:49:37;92842.47;;;11.13;86.04
18137;BME280;9194;42.632;23.298;2022-11-03T20:54:39;92846.25;;;10.99;86.03
18137;BME280;9194;42.632;23.298;2022-11-03T20:59:41;92836.69;;;10.93;85.83
18137;BME280;9194;42.632;23.298;2022-11-03T21:04:42;92839.50;;;10.92;85.86
18137;BME280;9194;42.632;23.298;2022-11-03T21:09:44;92835.91;;;10.93;86.46
18137;BME280;9194;42.632;23.298;2022-11-03T21:14:45;92827.81;;;10.83;87.19
18137;BME280;9194;42.632;23.298;2022-11-03T21:20:05;92830.91;;;10.73;87.78
18137;BME280;9194;42.632;23.298;2022-11-03T21:25:15;92826.34;;;10.68;88.45
18137;BME280;9194;42.632;23.298;2022-11-03T21:30:17;92838.56;;;10.68;88.74
18137;BME280;9194;42.632;23.298;2022-11-03T21:35:20;92822.94;;;10.68;89.35
18137;BME280;9194;42.632;23.298;2022-11-03T21:40:21;92823.09;;;10.73;89.62
18137;BME280;9194;42.632;23.298;2022-11-03T21:45:22;92816.44;;;10.77;89.99
18137;BME280;9194;42.632;23.298;2022-11-03T21:50:24;92811.59;;;10.81;90.54
18137;BME280;9194;42.632;23.298;2022-11-03T21:55:25;92804.50;;;10.88;88.98
18137;BME280;9194;42.632;23.298;2022-11-03T22:00:26;92797.25;;;10.90;89.21
18137;BME280;9194;42.632;23.298;2022-11-03T22:05:28;92797.50;;;10.88;89.35
18137;BME280;9194;42.632;23.298;2022-11-03T22:10:30;92791.69;;;10.86;89.62
18137;BME280;9194;42.632;23.298;2022-11-03T22:15:31;92780.56;;;10.79;90.02
18137;BME280;9194;42.632;23.298;2022-11-03T22:20:51;92780.41;;;10.74;91.46
18137;BME280;9194;42.632;23.298;2022-11-03T22:26:14;92780.69;;;10.66;91.82
18137;BME280;9194;42.632;23.298;2022-11-03T22:31:34;92784.91;;;10.49;92.57
18137;BME280;9194;42.632;23.298;2022-11-03T22:36:41;92769.78;;;10.39;92.92
18137;BME280;9194;42.632;23.298;2022-11-03T22:41:42;92756.84;;;10.33;93.96
18137;BME280;9194;42.632;23.298;2022-11-03T22:47:03;92755.09;;;10.26;94.62
18137;BME280;9194;42.632;23.298;2022-11-03T22:52:04;92757.78;;;10.20;95.46
18137;BME280;9194;42.632;23.298;2022-11-03T22:57:09;92754.63;;;10.11;96.04
18137;BME280;9194;42.632;23.298;2022-11-03T23:02:11;92758.28;;;10.04;96.07
18137;BME280;9194;42.632;23.298;2022-11-03T23:07:12;92748.53;;;9.99;95.66
18137;BME280;9194;42.632;23.298;2022-11-03T23:12:13;92756.94;;;10.01;95.99
18137;BME280;9194;42.632;23.298;2022-11-03T23:17:15;92760.38;;;9.95;96.28
18137;BME280;9194;42.632;23.298;2022-11-03T23:22:16;92754.28;;;9.83;97.40
18137;BME280;9194;42.632;23.298;2022-11-03T23:27:17;92761.97;;;9.71;98.33
18137;BME280;9194;42.632;23.298;2022-11-03T23:32:18;92756.56;;;9.73;98.43
18137;BME280;9194;42.632;23.298;2022-11-03T23:37:20;92750.41;;;9.67;98.82
18137;BME280;9194;42.632;23.298;2022-11-03T23:42:21;92749.84;;;9.65;99.36
18137;BME280;9194;42.632;23.298;2022-11-03T23:47:22;92747.44;;;9.64;99.33
18137;BME280;9194;42.632;23.298;2022-11-03T23:52:42;92749.72;;;9.54;100.00
18137;BME280;9194;42.632;23.298;2022-11-03T23:57:43;92745.91;;;9.56;100.00
